Time;durP1;ratioP1;P1;durP2;ratioP2;P2;SDS_P1;SDS_P2;PMS_P1;PMS_P2;Temp;Humidity;BMP_temperature;BMP_pressure;BME280_temperature;BME280_humidity;BME280_pressure;Samples;Min_cycle;Max_cycle;Signal;HPM_P1;HPM_P2
2023/09/10 00:00:39;;;;;;;26.00;20.20;;;21.80;99.90;;;;;;5005858;28;20072;-79
2023/09/10 00:03:05;;;;;;;32.53;23.27;;;21.70;99.90;;;;;;5006563;28;20104;-79
2023/09/10 00:05:31;;;;;;;33.55;25.95;;;21.70;99.90;;;;;;5007761;28;20021;-80
2023/09/10 00:08:00;;;;;;;35.33;25.58;;;21.70;99.90;;;;;;5005801;28;20026;-79
2023/09/10 00:10:26;;;;;;;35.08;26.92;;;21.70;99.90;;;;;;5005634;28;20124;-80
2023/09/10 00:12:52;;;;;;;34.35;25.90;;;21.60;99.90;;;;;;5007569;28;20459;-80
2023/09/10 00:15:18;;;;;;;29.75;23.30;;;21.50;99.90;;;;;;5005945;28;20014;-80
2023/09/10 00:17:43;;;;;;;34.30;22.45;;;21.60;99.90;;;;;;5008320;28;20446;-87
2023/09/10 00:20:10;;;;;;;30.15;22.33;;;21.50;99.90;;;;;;5007809;28;20621;-83
2023/09/10 00:22:37;;;;;;;28.55;20.77;;;21.50;99.90;;;;;;5004081;28;20117;-84
2023/09/10 00:25:06;;;;;;;26.95;20.25;;;21.40;99.90;;;;;;5007786;28;20033;-79
2023/09/10 00:27:32;;;;;;;29.92;20.58;;;21.40;99.90;;;;;;5006854;28;20053;-85
2023/09/10 00:29:59;;;;;;;33.03;21.83;;;21.30;99.90;;;;;;5007677;28;20018;-84
2023/09/10 00:32:25;;;;;;;31.35;21.50;;;21.30;99.90;;;;;;5005947;28;20030;-84
2023/09/10 00:34:51;;;;;;;26.00;20.60;;;21.30;99.90;;;;;;5006654;28;20014;-84
2023/09/10 00:37:17;;;;;;;29.58;21.75;;;21.30;99.90;;;;;;5007008;28;20025;-84
2023/09/10 00:39:43;;;;;;;27.73;21.65;;;21.30;99.90;;;;;;5006474;28;20030;-84
2023/09/10 00:42:09;;;;;;;31.65;22.33;;;21.30;99.90;;;;;;5006328;28;20045;-80
2023/09/10 00:44:36;;;;;;;30.63;22.10;;;21.20;99.90;;;;;;5007448;28;20026;-85
2023/09/10 00:47:03;;;;;;;33.92;24.05;;;21.20;99.90;;;;;;5006647;28;20437;-79
2023/09/10 00:49:30;;;;;;;32.30;25.08;;;21.10;99.90;;;;;;5027555;28;20033;-80
2023/09/10 00:51:58;;;;;;;32.10;24.42;;;21.10;99.90;;;;;;5006654;28;20137;-80
2023/09/10 00:54:25;;;;;;;35.50;27.33;;;21.00;99.90;;;;;;5003069;28;20051;-80
2023/09/10 00:56:54;;;;;;;38.22;26.73;;;21.00;99.90;;;;;;5022468;28;20419;-80
2023/09/10 00:59:19;;;;;;;39.53;27.33;;;21.00;99.90;;;;;;5006355;28;20033;-80
2023/09/10 01:01:45;;;;;;;33.65;26.33;;;20.90;99.90;;;;;;5007064;28;20018;-79
2023/09/10 01:04:12;;;;;;;34.45;26.55;;;20.90;99.90;;;;;;5005484;28;20018;-79
2023/09/10 01:06:37;;;;;;;35.42;27.05;;;20.90;99.90;;;;;;5008109;28;20036;-84
2023/09/10 01:09:04;;;;;;;39.05;28.63;;;20.90;99.90;;;;;;5008617;28;20022;-80
2023/09/10 01:11:51;;;;;;;37.65;26.70;;;20.80;99.90;;;;;;5004817;28;20037;-80
2023/09/10 01:14:34;;;;;;;33.17;25.63;;;20.80;99.90;;;;;;5003877;28;20381;-79
2023/09/10 01:17:28;;;;;;;34.38;25.63;;;20.70;99.90;;;;;;5006169;28;20084;-79
2023/09/10 01:20:14;;;;;;;34.00;25.85;;;20.70;99.90;;;;;;5006695;28;20034;-85
2023/09/10 01:22:51;;;;;;;38.10;28.63;;;20.70;99.90;;;;;;5006424;28;20026;-80
2023/09/10 01:25:18;;;;;;;40.75;27.25;;;20.70;99.90;;;;;;5009044;28;20030;-79
2023/09/10 01:27:45;;;;;;;35.58;25.48;;;20.70;99.90;;;;;;5005586;28;20030;-84
2023/09/10 01:30:13;;;;;;;35.25;25.23;;;20.70;99.90;;;;;;5005673;28;20102;-84
2023/09/10 01:32:47;;;;;;;32.30;24.75;;;20.70;99.90;;;;;;5006513;28;20114;-80
2023/09/10 01:35:25;;;;;;;33.08;24.70;;;20.70;99.90;;;;;;5004339;28;20113;-79
2023/09/10 01:38:16;;;;;;;33.35;25.27;;;20.70;99.90;;;;;;5001304;28;20065;-80
2023/09/10 01:40:56;;;;;;;38.80;26.33;;;20.80;99.90;;;;;;5007308;28;20796;-84
2023/09/10 01:43:22;;;;;;;40.88;26.70;;;20.70;99.90;;;;;;5007902;28;20132;-85
2023/09/10 01:45:49;;;;;;;35.58;26.13;;;20.70;99.90;;;;;;5003915;28;20514;-85
2023/09/10 01:48:15;;;;;;;34.88;26.35;;;20.80;99.90;;;;;;5008205;28;20470;-85
2023/09/10 01:50:41;;;;;;;30.45;24.38;;;20.80;99.90;;;;;;5006105;28;20030;-85
2023/09/10 01:53:06;;;;;;;35.58;25.38;;;20.80;99.90;;;;;;5005032;28;20026;-86
2023/09/10 01:55:35;;;;;;;33.85;24.40;;;20.90;99.90;;;;;;5005580;28;20433;-85
2023/09/10 01:58:03;;;;;;;36.85;24.13;;;20.90;99.90;;;;;;5006141;28;20549;-86
2023/09/10 02:00:31;;;;;;;30.25;23.98;;;20.80;99.90;;;;;;5006884;28;20100;-86
2023/09/10 02:02:56;;;;;;;32.15;24.25;;;20.80;99.90;;;;;;5002873;28;20405;-86
2023/09/10 02:05:22;;;;;;;31.08;24.50;;;20.80;99.90;;;;;;5005002;28;20095;-81
2023/09/10 02:07:50;;;;;;;28.77;22.92;;;20.80;99.90;;;;;;5002990;28;20038;-85
2023/09/10 02:10:15;;;;;;;33.35;23.35;;;20.80;99.90;;;;;;5006617;28;20026;-85
2023/09/10 02:12:41;;;;;;;29.02;22.27;;;20.80;99.90;;;;;;5006712;28;20385;-85
2023/09/10 02:15:08;;;;;;;34.88;23.35;;;20.80;99.90;;;;;;5005536;28;20025;-85
2023/09/10 02:17:34;;;;;;;31.98;22.92;;;20.80;99.90;;;;;;5006469;28;20061;-86
2023/09/10 02:19:59;;;;;;;31.83;24.00;;;20.80;99.90;;;;;;5005617;28;20831;-85
2023/09/10 02:22:25;;;;;;;32.17;23.90;;;20.80;99.90;;;;;;5006285;28;20517;-86
2023/09/10 02:24:52;;;;;;;35.53;24.30;;;20.70;99.90;;;;;;4995993;28;20556;-81
2023/09/10 02:27:18;;;;;;;33.47;25.67;;;20.70;99.90;;;;;;5004356;28;20029;-81
2023/09/10 02:29:43;;;;;;;33.70;26.10;;;20.60;99.90;;;;;;5006863;28;20026;-81
2023/09/10 02:32:10;;;;;;;36.30;26.90;;;20.60;99.90;;;;;;5004952;28;20552;-80
2023/09/10 02:34:35;;;;;;;37.00;28.10;;;20.70;99.90;;;;;;5005441;28;20076;-81
2023/09/10 02:37:02;;;;;;;38.90;27.08;;;20.70;99.90;;;;;;5005794;28;20033;-81
2023/09/10 02:39:28;;;;;;;37.33;26.15;;;20.70;99.90;;;;;;5003121;28;20064;-81
2023/09/10 02:41:53;;;;;;;33.80;25.77;;;20.70;99.90;;;;;;5010353;28;20022;-81
2023/09/10 02:44:19;;;;;;;37.17;26.60;;;20.70;99.90;;;;;;5014381;28;20386;-85
2023/09/10 02:46:45;;;;;;;34.53;25.38;;;20.70;99.90;;;;;;5011817;28;20036;-86
2023/09/10 02:49:10;;;;;;;38.22;28.67;;;20.60;99.90;;;;;;5011066;28;20054;-85
2023/09/10 02:51:36;;;;;;;39.95;27.85;;;20.60;99.90;;;;;;5009801;28;20023;-81
2023/09/10 02:54:03;;;;;;;33.05;25.15;;;20.50;99.90;;;;;;5007751;28;20080;-85
2023/09/10 02:56:29;;;;;;;37.20;26.65;;;20.50;99.90;;;;;;5008434;28;20489;-85
2023/09/10 02:58:54;;;;;;;44.70;28.13;;;20.50;99.90;;;;;;5008528;28;20038;-84
2023/09/10 03:01:25;;;;;;;38.65;27.98;;;20.50;99.90;;;;;;5008895;28;20045;-85
2023/09/10 03:03:51;;;;;;;40.60;29.20;;;20.40;99.90;;;;;;5010763;28;20449;-85
2023/09/10 03:06:16;;;;;;;39.25;27.25;;;20.40;99.90;;;;;;5007549;28;20034;-85
2023/09/10 03:08:44;;;;;;;42.67;28.73;;;20.40;99.90;;;;;;5010769;28;20151;-86
2023/09/10 03:11:09;;;;;;;43.97;29.60;;;20.30;99.90;;;;;;5008552;28;20529;-85
2023/09/10 03:13:35;;;;;;;40.10;27.83;;;20.30;99.90;;;;;;5009704;28;20093;-81
2023/09/10 03:16:03;;;;;;;41.30;29.02;;;20.20;99.90;;;;;;5010195;28;20022;-81
2023/09/10 03:18:28;;;;;;;40.30;29.52;;;20.20;99.90;;;;;;5007929;28;20059;-82
2023/09/10 03:20:56;;;;;;;37.72;28.00;;;20.20;99.90;;;;;;5009989;28;20030;-85
2023/09/10 03:23:22;;;;;;;41.83;31.63;;;20.20;99.90;;;;;;5009291;28;20029;-81
2023/09/10 03:25:47;;;;;;;40.97;30.02;;;20.20;99.90;;;;;;5003713;28;20041;-80
2023/09/10 03:28:13;;;;;;;43.50;30.35;;;20.30;99.90;;;;;;5012301;28;20022;-80
2023/09/10 03:30:39;;;;;;;36.67;28.20;;;20.30;99.90;;;;;;5009547;28;20032;-84
2023/09/10 03:33:04;;;;;;;39.92;28.70;;;20.30;99.90;;;;;;5011055;28;20022;-85
2023/09/10 03:35:30;;;;;;;36.30;27.35;;;20.30;99.90;;;;;;5007757;28;20080;-86
2023/09/10 03:37:58;;;;;;;36.08;27.63;;;20.30;99.90;;;;;;5005968;28;20034;-86
2023/09/10 03:40:23;;;;;;;39.08;27.95;;;20.30;99.90;;;;;;5011517;28;20080;-80
2023/09/10 03:42:49;;;;;;;41.72;29.00;;;20.30;99.90;;;;;;5006669;28;20030;-80
2023/09/10 03:45:15;;;;;;;37.05;26.83;;;20.30;99.90;;;;;;5006468;28;20128;-81
2023/09/10 03:47:41;;;;;;;42.00;29.27;;;20.30;99.90;;;;;;5006928;28;20025;-81
2023/09/10 03:50:07;;;;;;;39.75;31.55;;;20.30;99.90;;;;;;5006207;28;20026;-81
2023/09/10 03:52:32;;;;;;;47.88;33.58;;;20.30;99.90;;;;;;5006995;28;20083;-81
2023/09/10 03:54:58;;;;;;;43.28;30.98;;;20.30;99.90;;;;;;5006971;28;20026;-80
2023/09/10 03:57:24;;;;;;;38.50;27.20;;;20.20;99.90;;;;;;4994397;28;20399;-79
2023/09/10 03:59:49;;;;;;;38.08;29.10;;;20.20;99.90;;;;;;5007351;28;20065;-82
2023/09/10 04:02:15;;;;;;;35.85;25.52;;;20.10;99.90;;;;;;5019996;28;20482;-80
2023/09/10 04:04:41;;;;;;;30.83;24.75;;;20.00;99.90;;;;;;5007035;28;20026;-82
2023/09/10 04:07:07;;;;;;;32.85;25.10;;;20.00;99.90;;;;;;5008057;28;20022;-84
2023/09/10 04:09:32;;;;;;;34.70;27.67;;;19.90;99.90;;;;;;5010427;28;20088;-79
2023/09/10 04:12:00;;;;;;;37.72;27.90;;;19.90;99.90;;;;;;5021852;28;20588;-80
2023/09/10 04:14:26;;;;;;;35.90;27.42;;;19.80;99.90;;;;;;5022856;28;20088;-80
2023/09/10 04:16:52;;;;;;;31.90;24.63;;;19.90;99.90;;;;;;5007505;28;20045;-84
2023/09/10 04:19:17;;;;;;;31.88;24.73;;;19.80;99.90;;;;;;5007426;28;20786;-84
2023/09/10 04:21:45;;;;;;;32.95;25.42;;;19.90;99.90;;;;;;5006472;28;20081;-84
2023/09/10 04:24:11;;;;;;;36.35;25.90;;;19.80;99.90;;;;;;5009375;28;20022;-83
2023/09/10 04:26:36;;;;;;;37.97;26.33;;;19.90;99.90;;;;;;5005904;28;20818;-84
2023/09/10 04:29:02;;;;;;;32.90;25.02;;;19.90;99.90;;;;;;5006639;28;20018;-79
2023/09/10 04:31:35;;;;;;;37.30;25.80;;;20.00;99.90;;;;;;5007976;28;20088;-84
2023/09/10 04:34:01;;;;;;;39.13;27.58;;;19.90;99.90;;;;;;5007719;28;20518;-83
2023/09/10 04:36:26;;;;;;;40.72;29.48;;;19.90;99.90;;;;;;5006468;28;20144;-84
2023/09/10 04:38:54;;;;;;;43.40;29.83;;;19.90;99.90;;;;;;5009360;28;20033;-84
2023/09/10 04:41:19;;;;;;;46.45;31.88;;;19.70;99.90;;;;;;5011076;28;20048;-84
2023/09/10 04:43:45;;;;;;;43.60;30.67;;;19.70;99.90;;;;;;5007572;28;20121;-84
2023/09/10 04:46:13;;;;;;;47.17;32.92;;;19.60;99.90;;;;;;5004877;28;20382;-83
2023/09/10 04:48:38;;;;;;;44.60;32.70;;;19.70;99.90;;;;;;5005708;28;20018;-85
2023/09/10 04:51:04;;;;;;;51.33;32.58;;;19.70;99.90;;;;;;5005855;28;20030;-80
2023/09/10 04:53:30;;;;;;;43.40;33.08;;;19.60;99.90;;;;;;5008249;28;20437;-79
2023/09/10 04:55:56;;;;;;;46.20;32.22;;;19.70;99.90;;;;;;5002971;28;20392;-84
2023/09/10 04:58:21;;;;;;;46.83;33.80;;;19.70;99.90;;;;;;5008079;28;20030;-80
2023/09/10 05:00:50;;;;;;;45.75;32.15;;;19.80;99.90;;;;;;5005601;28;20096;-80
2023/09/10 05:03:15;;;;;;;47.92;34.58;;;19.80;99.90;;;;;;5002123;28;20080;-84
2023/09/10 05:05:41;;;;;;;50.20;34.22;;;19.80;99.90;;;;;;5010027;28;20026;-84
2023/09/10 05:08:06;;;;;;;49.15;35.33;;;19.80;99.90;;;;;;5005658;28;20033;-85
2023/09/10 05:10:32;;;;;;;50.67;36.13;;;19.70;99.90;;;;;;5008228;28;20021;-80
2023/09/10 05:12:58;;;;;;;54.08;36.67;;;19.80;99.90;;;;;;5006393;28;20576;-80
2023/09/10 05:15:23;;;;;;;46.70;33.15;;;19.80;99.90;;;;;;5006994;28;20049;-80
2023/09/10 05:17:51;;;;;;;44.97;31.95;;;19.80;99.90;;;;;;5003983;28;20053;-85
2023/09/10 05:20:17;;;;;;;406.50;191.15;;;19.90;99.90;;;;;;5006681;28;20457;-89
2023/09/10 05:22:45;;;;;;;76.75;44.45;;;19.90;99.90;;;;;;5022631;28;20049;-83
2023/09/10 05:25:11;;;;;;;46.17;34.30;;;19.90;99.90;;;;;;5004406;28;20033;-80
2023/09/10 05:27:37;;;;;;;46.42;34.80;;;19.90;99.90;;;;;;5005045;28;20025;-80
2023/09/10 05:30:04;;;;;;;49.38;34.95;;;19.90;99.90;;;;;;5007885;28;20690;-80
2023/09/10 05:32:29;;;;;;;50.40;34.67;;;19.90;99.90;;;;;;5007580;28;20032;-80
2023/09/10 05:34:56;;;;;;;55.67;35.10;;;19.90;99.90;;;;;;5008143;28;20919;-86
2023/09/10 05:37:22;;;;;;;52.55;35.85;;;19.90;99.90;;;;;;5004874;28;20029;-81
2023/09/10 05:39:49;;;;;;;52.20;35.75;;;20.00;99.90;;;;;;5003436;28;20505;-80
2023/09/10 05:42:17;;;;;;;51.03;36.53;;;20.00;99.90;;;;;;5005532;28;20018;-80
2023/09/10 05:44:42;;;;;;;50.20;36.58;;;20.00;99.90;;;;;;5005678;28;20095;-80
2023/09/10 05:47:08;;;;;;;53.28;36.50;;;20.10;99.90;;;;;;5007114;28;20462;-84
2023/09/10 05:49:37;;;;;;;55.65;36.70;;;20.10;99.90;;;;;;5000955;28;20022;-85
2023/09/10 05:52:03;;;;;;;51.60;36.90;;;20.10;99.90;;;;;;5007182;28;20010;-86
2023/09/10 05:54:34;;;;;;;52.72;36.90;;;20.10;99.90;;;;;;4999363;28;20028;-80
2023/09/10 05:57:00;;;;;;;55.67;38.15;;;20.10;99.90;;;;;;5004261;28;20207;-81
2023/09/10 05:59:25;;;;;;;52.97;36.80;;;20.10;99.90;;;;;;5002716;28;20394;-81
2023/09/10 06:01:54;;;;;;;52.25;35.75;;;20.20;99.90;;;;;;5005853;28;20021;-80
2023/09/10 06:04:19;;;;;;;50.13;35.65;;;20.20;99.90;;;;;;5006435;28;20165;-80
2023/09/10 06:06:47;;;;;;;54.85;38.17;;;20.20;99.90;;;;;;5004680;28;20022;-80
2023/09/10 06:09:16;;;;;;;54.25;37.35;;;20.20;99.90;;;;;;5005505;28;20497;-80
2023/09/10 06:11:41;;;;;;;53.38;39.33;;;20.30;99.90;;;;;;5003997;28;21036;-80
2023/09/10 06:14:08;;;;;;;53.70;38.72;;;20.40;99.90;;;;;;5007277;28;20139;-80
2023/09/10 06:16:34;;;;;;;53.10;37.15;;;20.50;99.90;;;;;;5003536;28;20031;-80
2023/09/10 06:18:59;;;;;;;55.92;38.67;;;20.50;99.90;;;;;;5003652;28;20041;-80
2023/09/10 06:21:25;;;;;;;54.58;38.85;;;20.60;99.90;;;;;;5004902;28;20103;-79
2023/09/10 06:23:50;;;;;;;56.33;37.35;;;20.70;99.90;;;;;;5006076;28;20144;-84
2023/09/10 06:26:16;;;;;;;62.78;38.60;;;20.70;99.90;;;;;;5001864;28;20041;-86
2023/09/10 06:28:44;;;;;;;53.08;38.20;;;20.70;99.90;;;;;;5004102;28;20037;-85
2023/09/10 06:31:09;;;;;;;54.03;39.42;;;20.70;99.90;;;;;;5007084;28;20030;-86
2023/09/10 06:33:35;;;;;;;52.40;38.33;;;20.80;99.90;;;;;;5004073;28;20088;-85
2023/09/10 06:36:01;;;;;;;55.05;39.95;;;20.90;99.90;;;;;;5005418;28;20564;-80
2023/09/10 06:38:28;;;;;;;59.45;39.65;;;20.90;99.90;;;;;;4996280;28;20489;-79
2023/09/10 06:40:56;;;;;;;59.10;41.50;;;21.00;99.90;;;;;;5003329;28;20057;-80
2023/09/10 06:43:22;;;;;;;55.83;39.03;;;21.00;99.90;;;;;;5005415;28;20053;-79
2023/09/10 06:45:50;;;;;;;52.47;37.33;;;21.10;99.90;;;;;;5006226;28;20061;-80
2023/09/10 06:48:18;;;;;;;55.47;39.42;;;21.20;99.90;;;;;;5005037;28;20026;-79
2023/09/10 06:50:44;;;;;;;60.05;40.03;;;21.30;99.90;;;;;;5005411;28;20085;-85
2023/09/10 06:53:12;;;;;;;59.60;39.45;;;21.40;99.90;;;;;;5005417;28;20429;-85
2023/09/10 06:55:38;;;;;;;56.92;39.85;;;21.40;99.90;;;;;;5005612;28;20104;-79
2023/09/10 06:58:03;;;;;;;53.60;39.38;;;21.50;99.90;;;;;;4997662;28;20025;-87
2023/09/10 07:00:29;;;;;;;59.40;42.33;;;21.60;99.90;;;;;;5006709;28;20034;-85
2023/09/10 07:02:56;;;;;;;59.03;39.97;;;21.70;99.90;;;;;;5004085;28;20064;-84
2023/09/10 07:05:21;;;;;;;55.70;39.35;;;21.80;99.90;;;;;;5004318;28;20022;-85
2023/09/10 07:07:53;;;;;;;54.83;38.75;;;21.90;99.90;;;;;;5006096;28;20021;-84
2023/09/10 07:10:19;;;;;;;59.35;39.67;;;22.10;99.90;;;;;;5006147;28;20121;-85
2023/09/10 07:12:47;;;;;;;53.67;38.83;;;22.10;99.90;;;;;;5006079;28;20022;-85
2023/09/10 07:15:12;;;;;;;53.97;37.85;;;22.30;99.90;;;;;;5004338;28;20037;-85
2023/09/10 07:17:38;;;;;;;55.17;38.08;;;22.40;99.90;;;;;;5004369;28;20014;-88
2023/09/10 07:20:04;;;;;;;57.05;38.10;;;22.50;99.90;;;;;;5004469;28;20061;-86
2023/09/10 07:22:30;;;;;;;53.30;37.70;;;22.60;99.90;;;;;;5004690;28;20482;-86
2023/09/10 07:24:55;;;;;;;60.40;40.38;;;22.70;99.90;;;;;;5004904;28;20072;-80
2023/09/10 07:27:21;;;;;;;57.53;39.85;;;22.80;99.90;;;;;;5007122;28;20018;-81
2023/09/10 07:29:47;;;;;;;53.58;37.40;;;22.80;99.90;;;;;;5006785;28;20398;-81
2023/09/10 07:32:13;;;;;;;50.90;37.13;;;22.90;99.90;;;;;;5008213;28;20466;-80
2023/09/10 07:34:39;;;;;;;49.65;37.25;;;23.00;99.90;;;;;;5007961;28;20037;-81
2023/09/10 07:37:04;;;;;;;53.28;34.20;;;23.10;99.90;;;;;;5012259;28;20037;-80
2023/09/10 07:39:30;;;;;;;48.33;34.78;;;23.10;99.90;;;;;;5009228;28;20125;-81
2023/09/10 07:41:56;;;;;;;46.30;35.22;;;23.20;99.90;;;;;;5007917;28;20083;-81
2023/09/10 07:44:24;;;;;;;53.63;37.47;;;23.40;99.90;;;;;;5006944;28;20022;-80
2023/09/10 07:46:50;;;;;;;48.40;33.85;;;23.40;99.90;;;;;;5005242;28;20108;-79
2023/09/10 07:49:15;;;;;;;49.22;33.65;;;23.60;99.90;;;;;;5009400;28;20105;-79
2023/09/10 07:51:41;;;;;;;45.00;32.58;;;23.70;99.90;;;;;;5006901;28;20141;-80
2023/09/10 07:54:06;;;;;;;46.60;32.70;;;23.80;99.90;;;;;;5008773;28;20022;-80
2023/09/10 07:56:32;;;;;;;46.67;33.53;;;23.80;99.90;;;;;;5008425;28;20434;-80
2023/09/10 07:59:00;;;;;;;47.03;32.08;;;23.90;99.90;;;;;;5007428;28;20561;-80
2023/09/10 08:01:25;;;;;;;46.47;31.40;;;23.90;99.90;;;;;;5008660;28;20029;-80
2023/09/10 08:03:51;;;;;;;41.88;30.98;;;24.10;99.90;;;;;;5006729;28;20018;-80
2023/09/10 08:06:20;;;;;;;44.42;31.98;;;24.30;99.90;;;;;;5007942;28;20539;-82
2023/09/10 08:08:45;;;;;;;47.05;31.20;;;24.40;99.90;;;;;;5009180;28;20929;-81
2023/09/10 08:11:13;;;;;;;44.47;30.60;;;24.60;99.90;;;;;;5004591;28;20418;-85
2023/09/10 08:13:42;;;;;;;40.20;29.58;;;24.70;99.90;;;;;;5015282;28;20017;-83
2023/09/10 08:16:13;;;;;;;40.83;29.27;;;24.80;99.90;;;;;;5015013;28;20076;-85
2023/09/10 08:18:39;;;;;;;41.55;29.67;;;24.90;99.90;;;;;;5005493;28;20448;-84
2023/09/10 08:21:05;;;;;;;42.03;27.75;;;25.00;99.90;;;;;;5006797;28;20475;-79
2023/09/10 08:23:30;;;;;;;41.97;27.77;;;25.20;99.90;;;;;;5004029;28;20090;-85
2023/09/10 08:25:56;;;;;;;44.08;28.55;;;25.40;99.90;;;;;;5008611;28;20034;-79
2023/09/10 08:28:24;;;;;;;41.20;29.17;;;25.50;99.90;;;;;;5008092;28;20032;-83
2023/09/10 08:30:53;;;;;;;35.35;27.10;;;25.60;99.90;;;;;;5007968;28;20018;-85
2023/09/10 08:33:21;;;;;;;35.42;28.38;;;25.80;99.90;;;;;;5006735;28;20080;-85
2023/09/10 08:35:49;;;;;;;40.30;28.30;;;25.90;99.90;;;;;;5005799;28;20416;-79
2023/09/10 08:38:15;;;;;;;42.42;29.83;;;26.10;99.90;;;;;;5000191;28;20029;-90
2023/09/10 08:41:05;;;;;;;42.25;27.67;;;26.20;99.90;;;;;;5029003;28;20474;-85
2023/09/10 08:43:58;;;;;;;41.45;28.17;;;26.40;99.90;;;;;;4998831;28;20037;-81
2023/09/10 08:46:30;;;;;;;36.58;25.45;;;26.50;99.90;;;;;;5000440;28;20014;-82
2023/09/10 08:48:59;;;;;;;37.42;27.35;;;26.80;99.90;;;;;;5002491;28;20058;-77
2023/09/10 08:51:29;;;;;;;36.10;26.55;;;27.00;99.90;;;;;;5003957;28;20077;-78
2023/09/10 08:54:01;;;;;;;37.35;24.50;;;27.10;99.90;;;;;;5002157;28;20111;-81
2023/09/10 08:56:28;;;;;;;36.55;24.30;;;27.30;99.90;;;;;;5002940;28;20041;-85
2023/09/10 08:58:54;;;;;;;42.17;26.13;;;27.50;99.90;;;;;;5021567;28;20034;-82
2023/09/10 09:01:23;;;;;;;30.42;23.45;;;27.60;99.70;;;;;;5001604;28;20180;-90
2023/09/10 09:03:49;;;;;;;34.47;23.48;;;27.90;99.30;;;;;;5002280;28;20027;-88
2023/09/10 09:06:15;;;;;;;30.83;24.15;;;28.20;98.10;;;;;;5001183;28;20026;-85
2023/09/10 09:08:47;;;;;;;27.23;22.77;;;28.40;97.10;;;;;;5000401;28;20075;-89
2023/09/10 09:11:14;;;;;;;32.13;24.05;;;28.60;96.50;;;;;;5026509;28;20111;-88
2023/09/10 09:13:44;;;;;;;35.30;23.13;;;28.80;96.00;;;;;;5020154;28;20029;-83
2023/09/10 09:16:11;;;;;;;32.70;21.95;;;29.00;95.20;;;;;;5007040;28;20130;-89
2023/09/10 09:18:39;;;;;;;29.50;20.13;;;29.30;94.80;;;;;;5003898;28;20188;-92
2023/09/10 09:21:14;;;;;;;30.63;19.45;;;29.40;94.20;;;;;;5020423;28;20048;-80
2023/09/10 09:24:01;;;;;;;31.42;20.67;;;29.50;93.10;;;;;;5023767;28;20105;-83
2023/09/10 09:26:28;;;;;;;28.52;19.67;;;29.60;92.40;;;;;;5016785;28;20060;-86
2023/09/10 09:28:57;;;;;;;26.77;19.63;;;29.70;92.40;;;;;;5002850;28;20022;-82
2023/09/10 09:31:24;;;;;;;28.05;17.73;;;29.80;91.70;;;;;;5003821;28;20767;-80
2023/09/10 09:33:50;;;;;;;24.85;17.95;;;29.80;91.00;;;;;;5002045;28;20088;-80
2023/09/10 09:36:16;;;;;;;19.83;16.52;;;30.00;91.10;;;;;;5003570;28;20790;-79
2023/09/10 09:38:43;;;;;;;23.23;17.08;;;30.30;90.70;;;;;;5000799;28;20061;-81
2023/09/10 09:41:09;;;;;;;29.58;17.00;;;30.30;90.30;;;;;;5006299;28;20040;-83
2023/09/10 09:43:35;;;;;;;29.63;17.90;;;30.50;90.40;;;;;;5006591;28;20421;-84
2023/09/10 09:46:01;;;;;;;20.15;16.92;;;30.70;87.70;;;;;;5001695;28;20026;-84
2023/09/10 09:48:28;;;;;;;21.23;16.63;;;30.80;87.80;;;;;;5004335;28;20064;-85
2023/09/10 09:50:57;;;;;;;21.15;15.90;;;30.90;87.20;;;;;;5013951;28;20027;-87
2023/09/10 09:53:25;;;;;;;30.63;16.38;;;31.00;86.80;;;;;;5002182;28;20022;-82
2023/09/10 09:55:55;;;;;;;17.75;13.98;;;31.10;85.10;;;;;;4999647;28;20112;-83
2023/09/10 09:58:23;;;;;;;17.60;15.25;;;31.40;84.80;;;;;;5000157;28;20026;-90
2023/09/10 10:08:37;;;;;;;16.25;12.73;;;32.10;81.80;;;;;;4982132;28;21200;-88
2023/09/10 10:14:40;;;;;;;18.17;11.98;;;31.90;79.10;;;;;;4966629;28;20039;-90
2023/09/10 10:21:11;;;;;;;;;;;;;;;;;;;;;
2023/09/10 10:24:14;;;;;;;;;;;;;;;;;;;;;
2023/09/10 10:29:52;;;;;;;17.93;14.40;;;32.80;78.30;;;;;;4981916;28;20081;-85
2023/09/10 10:32:30;;;;;;;19.15;12.50;;;32.80;78.50;;;;;;4984285;28;20034;-86
2023/09/10 10:35:01;;;;;;;17.45;12.57;;;32.90;77.30;;;;;;4985054;28;20022;-85
2023/09/10 10:37:32;;;;;;;18.23;12.85;;;33.00;77.20;;;;;;4988399;28;20395;-85
2023/09/10 10:40:05;;;;;;;21.50;12.43;;;32.90;77.60;;;;;;4985734;28;20030;-86
2023/09/10 10:42:46;;;;;;;14.77;11.90;;;32.80;77.70;;;;;;4984273;28;20026;-82
2023/09/10 10:45:16;;;;;;;16.40;11.82;;;33.00;76.90;;;;;;4995979;28;20057;-79
2023/09/10 10:47:44;;;;;;;14.27;12.77;;;33.10;75.30;;;;;;5002539;28;20018;-80
2023/09/10 10:50:16;;;;;;;18.65;11.75;;;33.20;75.60;;;;;;5003731;28;20598;-84
2023/09/10 10:52:57;;;;;;;22.20;11.13;;;33.10;75.80;;;;;;5001815;28;20030;-82
2023/09/10 10:55:24;;;;;;;21.77;11.65;;;33.00;75.50;;;;;;5001904;28;20072;-84
2023/09/10 10:57:51;;;;;;;14.15;10.75;;;33.00;73.30;;;;;;5000308;28;20561;-83
2023/09/10 11:00:21;;;;;;;15.38;11.55;;;33.20;73.60;;;;;;5002744;28;20037;-84
2023/09/10 11:03:09;;;;;;;15.55;11.38;;;33.60;74.00;;;;;;5002652;28;20096;-81
2023/09/10 11:05:52;;;;;;;12.40;9.90;;;33.80;70.50;;;;;;5005287;28;20026;-79
2023/09/10 11:08:34;;;;;;;13.15;9.68;;;33.90;70.30;;;;;;5005083;28;20018;-82
2023/09/10 11:11:01;;;;;;;11.65;10.00;;;33.70;71.70;;;;;;5004631;28;20026;-89
2023/09/10 11:13:27;;;;;;;12.55;10.27;;;33.70;72.10;;;;;;5002608;28;20058;-83
2023/09/10 11:16:05;;;;;;;12.20;9.90;;;33.80;71.90;;;;;;5005077;28;20076;-82
2023/09/10 11:18:37;;;;;;;13.65;9.75;;;34.00;71.50;;;;;;4997290;28;20033;-79
2023/09/10 11:21:12;;;;;;;16.02;10.80;;;33.90;71.50;;;;;;4984896;28;20037;-79
2023/09/10 11:23:40;;;;;;;17.52;10.27;;;33.80;70.50;;;;;;4980290;28;20034;-85
2023/09/10 11:26:15;;;;;;;12.23;11.02;;;33.80;71.40;;;;;;4982253;28;20030;-82
2023/09/10 11:28:46;;;;;;;15.63;11.02;;;34.00;71.60;;;;;;4981693;28;20116;-85
2023/09/10 11:31:48;;;;;;;17.75;10.43;;;33.90;69.70;;;;;;4984489;28;20025;-84
2023/09/10 11:34:23;;;;;;;17.48;10.02;;;34.10;70.90;;;;;;4957972;28;20038;-83
2023/09/10 11:37:15;;;;;;;14.98;9.90;;;34.10;69.50;;;;;;4985128;28;20471;-82
2023/09/10 11:39:42;;;;;;;15.88;10.57;;;34.00;68.80;;;;;;4977293;28;20050;-84
2023/09/10 11:42:08;;;;;;;23.25;10.98;;;34.10;70.80;;;;;;4988503;28;20043;-82
2023/09/10 11:44:37;;;;;;;15.63;10.02;;;34.20;68.80;;;;;;4978559;28;20030;-82
2023/09/10 11:47:03;;;;;;;16.70;10.60;;;34.30;68.80;;;;;;4977801;28;20469;-82
2023/09/10 11:49:28;;;;;;;19.67;10.60;;;34.40;68.50;;;;;;4978238;28;20026;-83
2023/09/10 11:51:56;;;;;;;17.83;10.25;;;34.30;68.20;;;;;;4978314;28;20117;-84
2023/09/10 11:54:24;;;;;;;19.45;10.25;;;34.40;67.00;;;;;;4984664;28;20165;-80
2023/09/10 11:56:56;;;;;;;14.52;10.00;;;34.30;67.90;;;;;;4981091;28;20030;-80
2023/09/10 11:59:30;;;;;;;15.55;10.50;;;34.50;67.90;;;;;;4980407;28;20540;-80
2023/09/10 12:01:56;;;;;;;13.75;10.38;;;34.70;68.20;;;;;;4980461;28;20054;-79
2023/09/10 12:04:29;;;;;;;27.25;10.63;;;34.70;67.50;;;;;;4993834;28;20193;-80
2023/09/10 12:06:56;;;;;;;18.10;10.68;;;34.70;66.80;;;;;;4994216;28;20026;-79
2023/09/10 12:09:21;;;;;;;14.68;10.55;;;34.70;68.10;;;;;;4981073;28;20084;-80
2023/09/10 12:11:49;;;;;;;12.38;10.25;;;34.70;67.50;;;;;;4978028;28;20463;-80
2023/09/10 12:14:17;;;;;;;13.73;10.63;;;34.90;67.20;;;;;;4981560;28;20026;-80
2023/09/10 12:16:43;;;;;;;13.88;10.13;;;35.20;68.30;;;;;;4982333;28;20036;-83
2023/09/10 12:19:09;;;;;;;12.70;10.07;;;35.40;66.20;;;;;;4983487;28;20030;-83
2023/09/10 12:21:35;;;;;;;16.63;10.73;;;35.60;66.10;;;;;;4982237;28;20030;-80
2023/09/10 12:24:00;;;;;;;15.57;10.43;;;35.50;65.90;;;;;;4978201;28;20041;-80
2023/09/10 12:26:26;;;;;;;13.18;10.52;;;35.50;64.50;;;;;;4981400;28;20033;-79
2023/09/10 12:28:55;;;;;;;18.27;11.02;;;35.50;66.00;;;;;;4979509;28;20045;-80
2023/09/10 12:31:21;;;;;;;13.05;8.10;;;35.50;64.60;;;;;;4996176;28;20033;-80
2023/09/10 12:33:47;;;;;;;12.40;8.95;;;35.50;60.60;;;;;;4978349;28;20031;-80
2023/09/10 12:36:14;;;;;;;16.15;9.23;;;35.70;62.60;;;;;;4985902;28;20153;-80
2023/09/10 12:38:39;;;;;;;12.43;8.73;;;35.80;62.20;;;;;;4980989;28;20027;-80
2023/09/10 12:41:05;;;;;;;16.10;9.63;;;35.70;60.90;;;;;;4985494;28;20109;-80
2023/09/10 12:43:31;;;;;;;17.00;8.70;;;35.80;61.10;;;;;;4980464;28;20030;-80
2023/09/10 12:45:57;;;;;;;19.67;10.35;;;35.70;60.40;;;;;;4978728;28;20029;-79
2023/09/10 12:48:23;;;;;;;17.33;9.90;;;35.40;61.10;;;;;;4979509;28;20027;-80
2023/09/10 12:50:50;;;;;;;19.33;9.50;;;35.30;62.10;;;;;;4976971;28;20399;-82
2023/09/10 12:53:16;;;;;;;17.42;9.18;;;35.20;62.10;;;;;;4986960;28;20062;-82